createdAt,value
2019-02-28T06:51:59.813Z,7.2
2019-02-28T06:53:13.573Z,5.4
2019-02-28T06:55:58.279Z,5.4
2019-02-28T06:58:42.963Z,5.5
2019-02-28T07:01:27.568Z,5.5
2019-02-28T07:04:12.164Z,5.5
2019-02-28T07:06:56.788Z,5.5
2019-02-28T07:09:41.552Z,5.6
2019-02-28T07:12:26.172Z,5.6
2019-02-28T07:15:10.707Z,5.7
2019-02-28T07:17:58.017Z,5.8
2019-02-28T07:19:26.233Z,5.9
2019-02-28T07:20:40.084Z,5.9
2019-02-28T07:23:24.724Z,6.1
2019-02-28T07:26:09.304Z,6.2
2019-02-28T07:28:54.003Z,6.2
2019-02-28T07:31:38.633Z,6.5
2019-02-28T07:34:23.214Z,6.6
2019-02-28T07:37:07.941Z,6.8
2019-02-28T07:39:52.577Z,7
2019-02-28T07:42:37.214Z,6.9
2019-02-28T07:45:21.840Z,6.9
2019-02-28T07:46:52.671Z,7.4
2019-02-28T07:48:06.480Z,7.6
2019-02-28T07:50:51.144Z,7.7
2019-02-28T07:53:35.695Z,7.7
2019-02-28T07:56:20.336Z,7.8
2019-02-28T07:59:05.058Z,7.9
2019-02-28T08:01:49.687Z,7.6
2019-02-28T08:04:34.281Z,7.5
2019-02-28T08:07:18.893Z,7.5
2019-02-28T08:10:03.662Z,7.2
2019-02-28T08:12:48.183Z,7.3
2019-02-28T08:14:19.150Z,7.3
2019-02-28T08:15:32.954Z,7.2
2019-02-28T08:18:17.506Z,7.2
2019-02-28T08:21:02.134Z,7.1
2019-02-28T08:23:46.831Z,7.2
2019-02-28T08:26:31.633Z,7.5
2019-02-28T08:29:16.047Z,7.6
2019-02-28T08:32:00.767Z,7.7
2019-02-28T08:34:45.447Z,7.8
2019-02-28T08:37:29.964Z,8
2019-02-28T08:40:14.618Z,8
2019-02-28T08:41:45.535Z,7.9
2019-02-28T08:42:59.366Z,8
2019-02-28T08:45:44.028Z,8
2019-02-28T08:48:28.658Z,8.1
2019-02-28T08:51:13.196Z,8.2
2019-02-28T08:53:57.845Z,8.2
2019-02-28T08:56:42.464Z,8.4
2019-02-28T08:59:27.117Z,8.4
2019-02-28T09:02:11.778Z,8.6
2019-02-28T09:04:56.486Z,9.1
2019-02-28T09:07:41.110Z,9.1
2019-02-28T09:10:25.692Z,9.1
2019-02-28T09:13:10.402Z,9
2019-02-28T09:15:54.999Z,9
2019-02-28T09:18:39.689Z,9
2019-02-28T09:21:24.262Z,8.9
2019-02-28T09:24:12.770Z,8.9
2019-02-28T09:26:53.544Z,9
2019-02-28T09:29:38.216Z,9.1
2019-02-28T09:32:22.888Z,9.4
2019-02-28T09:35:07.482Z,9.6
2019-02-28T09:36:38.461Z,9.9
2019-02-28T09:37:52.130Z,10.1
2019-02-28T09:40:36.767Z,10
2019-02-28T09:43:21.422Z,10.1
2019-02-28T09:46:06.066Z,10.2
2019-02-28T09:48:50.932Z,10.2
2019-02-28T09:51:35.454Z,10.4
2019-02-28T09:54:19.982Z,10.5
2019-02-28T09:57:04.618Z,10.6
2019-02-28T09:59:49.237Z,10.5
2019-02-28T10:02:33.960Z,10.7
2019-02-28T10:04:04.834Z,11.1
2019-02-28T10:05:18.677Z,11.4
2019-02-28T10:08:03.288Z,11.5
2019-02-28T10:10:47.893Z,12
2019-02-28T10:13:32.593Z,12.2
2019-02-28T10:16:17.147Z,11.9
2019-02-28T10:19:01.741Z,11.6
2019-02-28T10:21:46.557Z,11.9
2019-02-28T10:24:31.014Z,11.6
2019-02-28T10:27:18.317Z,12.1
2019-02-28T10:30:00.421Z,12.6
2019-02-28T10:31:31.228Z,12.8
2019-02-28T10:32:44.957Z,13.1
2019-02-28T10:35:29.688Z,13.3
2019-02-28T10:38:14.234Z,14.1
2019-02-28T10:40:59.006Z,14.4
2019-02-28T10:43:43.530Z,13.9
2019-02-28T10:46:28.181Z,13.5
2019-02-28T10:49:12.900Z,13.4
2019-02-28T10:51:57.458Z,13.7
2019-02-28T10:54:42.162Z,13.9
2019-02-28T10:57:26.832Z,13.9
2019-02-28T10:58:57.760Z,14.2
2019-02-28T11:00:11.387Z,14.2
2019-02-28T11:02:56.104Z,14
2019-02-28T11:05:40.834Z,13.3
2019-02-28T11:08:25.381Z,13.4
2019-02-28T11:11:10.045Z,12.9
2019-02-28T11:13:54.584Z,13.1
2019-02-28T11:16:39.297Z,13.5
2019-02-28T11:19:23.886Z,13.9
2019-02-28T11:22:08.552Z,13.4
2019-02-28T11:24:58.608Z,13.2
2019-02-28T11:27:37.809Z,13.6
2019-02-28T11:30:22.453Z,13.9
2019-02-28T11:33:07.157Z,14.4
2019-02-28T11:35:51.756Z,14
2019-02-28T11:38:36.489Z,13.9
2019-02-28T11:41:21.023Z,13.9
2019-02-28T11:44:05.657Z,14.2
2019-02-28T11:46:50.291Z,14.2
2019-02-28T11:49:35.020Z,14.4
2019-02-28T11:52:19.572Z,14.5
2019-02-28T11:53:50.455Z,14.8
2019-02-28T11:55:04.262Z,15.1
2019-02-28T11:57:48.893Z,15.4
2019-02-28T12:00:33.520Z,14.5
2019-02-28T12:03:18.259Z,14.4
2019-02-28T12:06:02.784Z,14.6
2019-02-28T12:08:47.654Z,14.6
2019-02-28T12:11:32.153Z,14.4
2019-02-28T12:14:16.713Z,14.2
2019-02-28T12:17:01.624Z,14.3
2019-02-28T12:19:45.999Z,14
2019-02-28T12:21:16.881Z,14.1
2019-02-28T12:22:30.657Z,14.1
2019-02-28T12:25:15.301Z,14.1
2019-02-28T12:27:59.948Z,13.4
2019-02-28T12:30:44.815Z,13.4
2019-02-28T12:33:29.206Z,13.5
2019-02-28T12:36:13.927Z,13.4
2019-02-28T12:38:58.604Z,13.5
2019-02-28T12:41:43.443Z,13.7
2019-02-28T12:44:27.774Z,13.9
2019-02-28T12:47:12.416Z,14.1
2019-02-28T12:48:43.537Z,14.5
2019-02-28T12:49:57.109Z,14.5
2019-02-28T12:52:43.112Z,14.3
2019-02-28T12:55:26.344Z,14.4
2019-02-28T12:58:11.013Z,14
2019-02-28T13:00:55.709Z,13.9
2019-02-28T13:03:40.270Z,14
2019-02-28T13:06:24.935Z,14.1
2019-02-28T13:09:09.568Z,13.8
2019-02-28T13:11:54.212Z,14
2019-02-28T13:14:38.876Z,13.7
2019-02-28T13:16:09.855Z,13.6
2019-02-28T13:17:23.569Z,14
2019-02-28T13:20:08.166Z,14
2019-02-28T13:22:52.784Z,14.2
2019-02-28T13:25:37.415Z,14.2
2019-02-28T13:28:22.186Z,14.5
2019-02-28T13:31:06.781Z,14.9
2019-02-28T13:33:51.377Z,14.7
2019-02-28T13:36:36.087Z,14.6
2019-02-28T13:39:20.712Z,14.4
2019-02-28T13:42:05.263Z,14.4
2019-02-28T13:44:50.022Z,14.1
2019-02-28T13:47:34.572Z,14
2019-02-28T13:50:19.360Z,13.9
2019-02-28T13:53:04.369Z,14
2019-02-28T13:55:48.586Z,14.1
2019-02-28T13:58:33.198Z,14.2
2019-02-28T14:01:17.843Z,14.3
2019-02-28T14:04:02.432Z,14.3
2019-02-28T14:06:47.071Z,14.2
2019-02-28T14:09:31.690Z,14.2
2019-02-28T14:11:02.564Z,14.2
2019-02-28T14:12:16.502Z,14.2
2019-02-28T14:15:00.968Z,14.2
2019-02-28T14:17:45.704Z,14.4
2019-02-28T14:20:30.262Z,14.4
2019-02-28T14:23:14.886Z,14.4
2019-02-28T14:25:59.526Z,14.6
2019-02-28T14:28:44.178Z,14.5
2019-02-28T14:31:28.843Z,14.5
2019-02-28T14:34:13.536Z,14.7
2019-02-28T14:36:58.243Z,14.7
2019-02-28T14:38:29.079Z,14.7
2019-02-28T14:39:42.792Z,14.8
2019-02-28T14:42:27.396Z,14.7
2019-02-28T14:45:12.133Z,14.6
2019-02-28T14:47:56.718Z,14.6
2019-02-28T14:50:43.997Z,14.8
2019-02-28T14:53:28.847Z,14.6
2019-02-28T14:56:10.600Z,14.4
2019-02-28T14:58:55.251Z,14.3
2019-02-28T15:01:40.052Z,14.1
2019-02-28T15:04:24.512Z,14.1
2019-02-28T15:05:55.451Z,14
2019-02-28T15:07:09.188Z,14
2019-02-28T15:09:53.811Z,13.9
2019-02-28T15:12:38.540Z,13.9
2019-02-28T15:15:23.154Z,13.8
2019-02-28T15:18:07.754Z,13.8
2019-02-28T15:20:52.377Z,13.8
2019-02-28T15:23:37.007Z,13.9
2019-02-28T15:26:21.741Z,13.8
2019-02-28T15:29:06.306Z,13.8
2019-02-28T15:31:51.017Z,13.8
2019-02-28T15:33:21.899Z,13.8
2019-02-28T15:34:35.658Z,13.7
2019-02-28T15:37:20.255Z,13.7
2019-02-28T15:40:04.895Z,13.7
2019-02-28T15:42:49.554Z,13.7
2019-02-28T15:45:34.196Z,13.7
2019-02-28T15:48:18.844Z,13.7
2019-02-28T15:51:03.474Z,13.6
2019-02-28T15:53:48.092Z,13.5
2019-02-28T15:56:32.795Z,13.5
2019-02-28T15:59:17.521Z,13.5
